Kezdőlap
METAR-TAF:

METAR-TAF

Repülőterek :

Brenner Field

Falls City, Nebraska, Amerikai Egyesült Államok

földrajzi szélesség: 40-04-44N, földrajzi hosszúság: 095-35-31W, magasság: 300 m

Jelenlegi meteorológiai megfigyelések

A jelentés 17 perccel ezelõtt készült, 15:05 UTC
Kelet-északkeleti szél 9 kt
Hőmérséklet -6°C
Páratartalom 79%
Légköri nyomás 1018 hPa
Látótávolság: 6.4 km
Szakadozott felhőzet 3700 lábon
Szakadozott felhőzet 5000 lábon
Borult 5500 lábon
enyhe havazás

METAR: KFNB 151505Z AUTO 06009KT 4SM -SN BKN037 BKN050 OVC055 M06/M09 A3005 RMK AO2 P0000 T10611089 $

Idő: 09:22 (15:22 UTC)


TAF: hiányzik

Meteorológiai megfigyelések és előrejelzések több, mint 4000 repülőtéren (METAR és TAF jelentéseket).

A térképen piros és sárga pontok jelzik az elérhető meteorológiai állomásokat.

Mozgassa az egeret a pont fölött, hogy megjelenjen az állomás neve.

Azután kattintson az időjárási megfigyelések és előrejelzések megtekintéséhez.

A térkép megváltoztatása: kattintson a fekete keresztel jelölt zöld gombra ráközelítéshez, a vonallal jelölt zöld gombra távolításhoz, vagy a zöld nyilakra a szomszédos térképek eléréséhez.


METAR-TAF: